createdAt,value
2023-04-18T00:03:10.697Z,7.76
2023-04-18T00:07:13.930Z,7.66
2023-04-18T00:11:15.309Z,7.65
2023-04-18T00:15:16.651Z,7.60
2023-04-18T00:19:18.022Z,7.53
2023-04-18T00:23:20.727Z,7.43
2023-04-18T00:27:22.066Z,7.51
2023-04-18T00:31:23.502Z,7.57
2023-04-18T00:35:24.985Z,7.58
2023-04-18T00:39:27.658Z,7.56
2023-04-18T00:43:29.052Z,7.54
2023-04-18T00:47:30.419Z,7.42
2023-04-18T00:51:32.207Z,7.53
2023-04-18T00:55:35.058Z,7.40
2023-04-18T00:59:36.540Z,7.44
2023-04-18T01:03:37.978Z,7.42
2023-04-18T01:07:39.449Z,7.38
2023-04-18T01:11:42.149Z,7.29
2023-04-18T01:15:44.073Z,7.19
2023-04-18T01:19:45.460Z,7.22
2023-04-18T01:23:47.384Z,7.19
2023-04-18T01:27:50.062Z,7.29
2023-04-18T01:31:51.479Z,7.37
2023-04-18T01:35:52.808Z,7.29
2023-04-18T01:39:54.197Z,7.15
2023-04-18T01:43:56.893Z,7.10
2023-04-18T01:47:58.260Z,6.97
2023-04-18T01:52:00.790Z,6.99
2023-04-18T01:56:02.181Z,7.02
2023-04-18T02:00:05.802Z,6.92
2023-04-18T02:04:07.294Z,6.99
2023-04-18T02:08:08.669Z,6.97
2023-04-18T02:12:09.999Z,6.86
2023-04-18T02:16:13.314Z,6.76
2023-04-18T02:20:14.787Z,6.65
2023-04-18T02:24:16.301Z,6.70
2023-04-18T02:28:17.758Z,6.69
2023-04-18T02:32:20.576Z,6.65
2023-04-18T02:36:21.969Z,6.59
2023-04-18T02:40:23.331Z,6.53
2023-04-18T02:44:24.874Z,6.35
2023-04-18T02:48:27.660Z,6.36
2023-04-18T02:52:29.089Z,6.44
2023-04-18T02:56:30.429Z,6.60
2023-04-18T03:00:31.862Z,6.65
2023-04-18T03:04:34.893Z,6.53
2023-04-18T03:08:36.280Z,6.66
2023-04-18T03:12:37.655Z,6.61
2023-04-18T03:16:39.124Z,6.66
2023-04-18T03:20:41.885Z,6.65
2023-04-18T03:24:43.235Z,6.65
2023-04-18T03:28:44.668Z,6.47
2023-04-18T03:32:52.074Z,6.43
2023-04-18T03:36:55.087Z,6.52
2023-04-18T03:40:56.439Z,6.43
2023-04-18T03:44:57.780Z,6.49
2023-04-18T03:48:59.137Z,6.51
2023-04-18T03:53:01.867Z,6.65
2023-04-18T03:57:03.314Z,6.65
2023-04-18T04:01:04.749Z,6.80
2023-04-18T04:05:06.323Z,6.82
2023-04-18T04:09:09.079Z,6.79
2023-04-18T04:13:10.417Z,6.77
2023-04-18T04:17:11.754Z,6.91
2023-04-18T04:21:13.108Z,7.03
2023-04-18T04:25:17.249Z,7.15
2023-04-18T04:29:18.596Z,7.02
2023-04-18T04:33:20.432Z,7.24
2023-04-18T04:37:21.830Z,7.15
2023-04-18T04:41:24.550Z,7.29
2023-04-18T04:45:25.899Z,7.34
2023-04-18T04:49:27.253Z,7.32
2023-04-18T04:53:29.200Z,7.35
2023-04-18T04:57:31.915Z,7.37
2023-04-18T05:01:33.348Z,7.35
2023-04-18T05:05:34.773Z,7.34
2023-04-18T05:09:36.100Z,7.42
2023-04-18T05:13:38.787Z,7.41
2023-04-18T05:17:40.185Z,7.57
2023-04-18T05:21:41.597Z,7.57
2023-04-18T05:25:42.955Z,7.74
2023-04-18T05:29:45.671Z,7.66
2023-04-18T05:33:47.042Z,7.76
2023-04-18T05:37:48.401Z,7.74
2023-04-18T05:41:49.796Z,7.76
2023-04-18T05:45:52.740Z,7.88
2023-04-18T05:49:54.250Z,7.93
2023-04-18T05:53:55.610Z,7.88
2023-04-18T05:57:56.990Z,8.02
2023-04-18T06:01:59.802Z,8.13
2023-04-18T06:06:01.352Z,8.16
2023-04-18T06:10:02.911Z,8.15
2023-04-18T06:14:04.241Z,8.20
2023-04-18T06:18:07.048Z,8.22
2023-04-18T06:22:08.483Z,8.25
2023-04-18T06:26:09.893Z,8.23
2023-04-18T06:30:11.460Z,8.26
2023-04-18T06:34:14.513Z,8.31
2023-04-18T06:38:15.950Z,8.37
2023-04-18T06:42:17.300Z,8.38
2023-04-18T06:46:19.178Z,8.34
2023-04-18T06:50:22.053Z,8.34
2023-04-18T06:54:23.415Z,8.39
2023-04-18T06:58:24.758Z,8.51
2023-04-18T07:02:26.312Z,8.58
2023-04-18T07:06:29.745Z,8.56
2023-04-18T07:10:31.231Z,8.60
2023-04-18T07:14:34.205Z,8.64
2023-04-18T07:18:38.448Z,8.68
2023-04-18T07:22:41.428Z,8.78
2023-04-18T07:26:42.910Z,8.88
2023-04-18T07:30:44.295Z,8.86
2023-04-18T07:34:45.633Z,8.90
2023-04-18T07:38:48.359Z,9.13
2023-04-18T07:42:49.717Z,8.98
2023-04-18T07:46:51.656Z,8.87
2023-04-18T07:50:53.723Z,8.96
2023-04-18T07:54:56.448Z,9.09
2023-04-18T07:58:57.783Z,9.05
2023-04-18T08:02:59.314Z,9.13
2023-04-18T08:07:00.750Z,9.29
2023-04-18T08:11:03.501Z,9.24
2023-04-18T08:15:05.298Z,9.32
2023-04-18T08:19:06.639Z,9.35
2023-04-18T08:23:10.533Z,9.44
2023-04-18T08:27:15.626Z,9.49
2023-04-18T08:31:17.082Z,9.67
2023-04-18T08:35:18.512Z,9.73
2023-04-18T08:39:19.845Z,9.70
2023-04-18T08:43:22.776Z,9.78
2023-04-18T08:47:24.243Z,9.77
2023-04-18T08:51:29.186Z,9.86
2023-04-18T08:55:30.658Z,9.88
2023-04-18T08:59:33.393Z,9.89
2023-04-18T09:03:35.730Z,9.91
2023-04-18T09:07:37.104Z,9.95
2023-04-18T09:11:38.456Z,10.07
2023-04-18T09:15:41.209Z,10.21
2023-04-18T09:19:46.116Z,10.41
2023-04-18T09:23:47.454Z,10.45
2023-04-18T09:27:48.870Z,10.51
2023-04-18T09:31:58.788Z,10.52
2023-04-18T09:36:15.050Z,10.50
2023-04-18T09:40:16.904Z,10.55
2023-04-18T09:44:18.521Z,10.56
2023-04-18T09:48:21.623Z,10.42
2023-04-18T09:52:23.329Z,10.52
2023-04-18T09:56:25.593Z,10.50
2023-04-18T10:00:29.731Z,10.48
2023-04-18T10:04:32.789Z,10.47
2023-04-18T10:08:34.631Z,10.49
2023-04-18T10:12:36.614Z,10.50
2023-04-18T10:16:38.458Z,10.55
2023-04-18T10:20:41.932Z,10.67
2023-04-18T10:24:46.634Z,10.75
2023-04-18T10:28:55.139Z,10.67
2023-04-18T10:32:56.769Z,10.51
2023-04-18T10:37:05.627Z,10.63
2023-04-18T10:41:13.870Z,10.68
2023-04-18T10:45:18.229Z,10.72
2023-04-18T10:49:20.361Z,10.75
2023-04-18T10:53:23.101Z,10.76
2023-04-18T10:57:24.457Z,10.85
2023-04-18T11:01:28.639Z,10.91
2023-04-18T11:05:32.460Z,11.05
2023-04-18T11:09:35.175Z,11.09
2023-04-18T11:13:36.624Z,11.30
2023-04-18T11:17:38.914Z,11.98
2023-04-18T11:21:40.504Z,12.61
2023-04-18T11:25:43.232Z,13.07
2023-04-18T11:29:44.590Z,13.19
2023-04-18T11:33:46.137Z,13.02
2023-04-18T11:37:47.524Z,12.98
2023-04-18T11:41:50.365Z,12.75
2023-04-18T11:45:52.534Z,12.68
2023-04-18T11:49:57.484Z,12.88
2023-04-18T11:53:58.848Z,13.51
2023-04-18T11:58:01.676Z,13.91
2023-04-18T12:02:15.221Z,13.97
2023-04-18T12:06:17.863Z,13.81
2023-04-18T12:10:26.568Z,13.60
2023-04-18T12:14:29.812Z,13.56
2023-04-18T12:18:31.221Z,13.49
2023-04-18T12:22:39.606Z,13.61
2023-04-18T12:26:44.854Z,13.10
2023-04-18T12:30:47.574Z,13.11
2023-04-18T12:34:48.916Z,13.05
2023-04-18T12:38:50.269Z,13.21
2023-04-18T12:42:52.165Z,13.13
2023-04-18T12:46:54.982Z,13.51
2023-04-18T12:50:56.353Z,13.69
2023-04-18T12:54:57.710Z,13.64
2023-04-18T12:58:59.165Z,13.65
2023-04-18T13:03:02.270Z,13.60
2023-04-18T13:07:03.834Z,13.72
2023-04-18T13:11:05.343Z,14.05
2023-04-18T13:15:07.280Z,14.17
2023-04-18T13:19:10.155Z,14.65
2023-04-18T13:23:11.528Z,14.35
2023-04-18T13:27:13.346Z,14.25
2023-04-18T13:31:16.929Z,14.00
2023-04-18T13:35:20.121Z,14.00
2023-04-18T13:39:21.519Z,14.02
2023-04-18T13:43:22.865Z,14.37
2023-04-18T13:47:24.213Z,13.97
2023-04-18T13:51:27.033Z,14.16
2023-04-18T13:55:28.398Z,13.92
2023-04-18T13:59:30.627Z,13.87
2023-04-18T14:03:32.697Z,13.59
2023-04-18T14:07:36.825Z,13.82
2023-04-18T14:11:38.165Z,13.95
2023-04-18T14:15:39.528Z,14.34
2023-04-18T14:19:40.875Z,14.76
2023-04-18T14:23:43.741Z,14.38
2023-04-18T14:27:47.042Z,14.30
2023-04-18T14:31:48.574Z,13.91
2023-04-18T14:35:50.075Z,13.79
2023-04-18T14:39:52.794Z,13.62
2023-04-18T14:43:54.151Z,13.48
2023-04-18T14:47:55.708Z,13.15
2023-04-18T14:51:57.184Z,13.08
2023-04-18T14:55:59.931Z,13.03
2023-04-18T15:00:01.370Z,13.11
2023-04-18T15:04:03.018Z,13.17
2023-04-18T15:08:04.560Z,13.23
2023-04-18T15:12:07.649Z,13.18
2023-04-18T15:16:09.051Z,12.81
2023-04-18T15:20:10.568Z,12.54
2023-04-18T15:24:12.081Z,12.24
2023-04-18T15:28:15.013Z,12.12
2023-04-18T15:32:16.451Z,12.13
2023-04-18T15:36:17.957Z,12.05
2023-04-18T15:40:19.548Z,11.97
2023-04-18T15:44:22.416Z,11.74
2023-04-18T15:48:23.818Z,11.70
2023-04-18T15:52:25.240Z,11.71
2023-04-18T15:56:26.599Z,11.64
2023-04-18T16:00:29.305Z,11.76
2023-04-18T16:04:30.686Z,11.84
2023-04-18T16:08:33.277Z,11.77
2023-04-18T16:12:34.899Z,11.79
2023-04-18T16:16:37.611Z,11.88
2023-04-18T16:20:38.963Z,11.71
2023-04-18T16:24:42.022Z,11.70
2023-04-18T16:28:43.586Z,11.82
2023-04-18T16:32:46.387Z,11.63
2023-04-18T16:36:50.663Z,11.69
2023-04-18T16:40:53.787Z,11.73
2023-04-18T16:44:55.120Z,11.71
2023-04-18T16:48:57.852Z,11.71
2023-04-18T16:52:59.196Z,11.53
2023-04-18T16:57:00.563Z,11.53
2023-04-18T17:01:01.942Z,11.51
2023-04-18T17:05:04.929Z,11.49
2023-04-18T17:09:06.471Z,11.37
2023-04-18T17:13:07.876Z,11.24
2023-04-18T17:17:09.294Z,11.24
2023-04-18T17:21:12.008Z,11.13
2023-04-18T17:25:13.535Z,11.03
2023-04-18T17:29:15.438Z,10.96
2023-04-18T17:33:16.922Z,10.87
2023-04-18T17:37:19.682Z,10.87
2023-04-18T17:41:21.259Z,10.75
2023-04-18T17:45:22.621Z,10.66
2023-04-18T17:49:23.995Z,10.64
2023-04-18T17:53:26.718Z,10.57
2023-04-18T17:57:28.489Z,10.55
2023-04-18T18:01:29.911Z,10.49
2023-04-18T18:05:31.293Z,10.34
2023-04-18T18:09:34.030Z,10.20
2023-04-18T18:13:35.390Z,10.16
2023-04-18T18:17:36.779Z,10.19
2023-04-18T18:21:38.156Z,10.14
2023-04-18T18:25:41.220Z,10.02
2023-04-18T18:29:42.559Z,10.06
2023-04-18T18:33:43.921Z,9.99
2023-04-18T18:37:45.245Z,9.90
2023-04-18T18:41:47.969Z,10.01
2023-04-18T18:45:49.333Z,9.80
2023-04-18T18:49:50.706Z,9.74
2023-04-18T18:53:52.065Z,9.80
2023-04-18T18:57:54.782Z,9.70
2023-04-18T19:01:56.200Z,9.67
2023-04-18T19:05:57.704Z,9.68
2023-04-18T19:09:59.264Z,9.77
2023-04-18T19:14:01.993Z,9.79
2023-04-18T19:18:03.482Z,9.70
2023-04-18T19:22:04.885Z,9.61
2023-04-18T19:26:06.216Z,9.58
2023-04-18T19:30:09.555Z,9.59
2023-04-18T19:34:10.898Z,9.53
2023-04-18T19:38:12.296Z,9.55
2023-04-18T19:42:13.668Z,9.61
2023-04-18T19:46:16.404Z,9.57
2023-04-18T19:50:17.902Z,9.60
2023-04-18T19:54:21.487Z,9.56
2023-04-18T19:58:35.628Z,9.57
2023-04-18T20:02:39.280Z,9.50
2023-04-18T20:06:40.697Z,9.57
2023-04-18T20:10:42.041Z,9.55
2023-04-18T20:14:43.401Z,9.50
2023-04-18T20:18:46.194Z,9.50
2023-04-18T20:22:47.598Z,9.41
2023-04-18T20:26:48.935Z,9.34
2023-04-18T20:30:50.401Z,9.31
2023-04-18T20:34:53.116Z,9.30
2023-04-18T20:38:54.472Z,9.34
2023-04-18T20:42:55.821Z,9.43
2023-04-18T20:46:57.168Z,9.36
2023-04-18T20:51:00.202Z,9.36
2023-04-18T20:55:01.600Z,9.26
2023-04-18T20:59:03.131Z,9.32
2023-04-18T21:03:04.613Z,9.38
2023-04-18T21:07:07.450Z,9.38
2023-04-18T21:11:08.837Z,9.34
2023-04-18T21:15:10.643Z,9.35
2023-04-18T21:19:12.110Z,9.37
2023-04-18T21:23:14.828Z,9.22
2023-04-18T21:27:16.182Z,9.36
2023-04-18T21:31:17.590Z,9.39
2023-04-18T21:35:20.725Z,9.36
2023-04-18T21:39:24.125Z,9.32
2023-04-18T21:43:25.482Z,9.40
2023-04-18T21:47:26.856Z,9.35
2023-04-18T21:51:28.306Z,9.32
2023-04-18T21:55:30.997Z,9.31
2023-04-18T21:59:32.432Z,9.31
2023-04-18T22:03:34.120Z,9.33
2023-04-18T22:07:40.794Z,9.39
2023-04-18T22:11:53.081Z,9.51
2023-04-18T22:15:54.403Z,9.42
2023-04-18T22:19:55.764Z,9.43
2023-04-18T22:23:57.121Z,9.40
2023-04-18T22:27:59.890Z,9.25
2023-04-18T22:32:01.265Z,9.24
2023-04-18T22:36:02.694Z,9.14
2023-04-18T22:40:04.361Z,9.15
2023-04-18T22:44:07.107Z,9.16
2023-04-18T22:48:08.530Z,9.08
2023-04-18T22:52:09.891Z,9.15
2023-04-18T22:56:11.249Z,9.05
2023-04-18T23:00:14.471Z,9.02
2023-04-18T23:04:16.153Z,8.90
2023-04-18T23:08:17.864Z,8.86
2023-04-18T23:12:19.289Z,8.84
2023-04-18T23:16:22.104Z,8.87
2023-04-18T23:20:23.517Z,8.77
2023-04-18T23:24:24.917Z,8.58
2023-04-18T23:28:26.336Z,8.64
2023-04-18T23:32:29.151Z,8.49
2023-04-18T23:36:30.569Z,8.46
2023-04-18T23:40:31.904Z,8.38
2023-04-18T23:44:33.273Z,8.22
2023-04-18T23:48:36.018Z,8.09
2023-04-18T23:52:37.416Z,7.98
2023-04-18T23:56:38.752Z,7.97
